createdAt,value
2022-12-14T00:01:49.247Z,14.70
2022-12-14T00:04:17.541Z,17.77
2022-12-14T00:06:45.185Z,16.57
2022-12-14T00:09:12.840Z,14.40
2022-12-14T00:11:40.936Z,15.80
2022-12-14T00:14:08.509Z,16.23
2022-12-14T00:16:36.629Z,14.73
2022-12-14T00:19:06.187Z,13.60
2022-12-14T00:21:34.337Z,15.83
2022-12-14T00:24:02.099Z,15.37
2022-12-14T00:26:31.219Z,16.87
2022-12-14T00:29:00.381Z,17.50
2022-12-14T00:31:28.113Z,16.23
2022-12-14T00:33:55.770Z,15.77
2022-12-14T00:36:23.476Z,16.17
2022-12-14T00:38:51.072Z,13.90
2022-12-14T00:41:18.745Z,15.20
2022-12-14T00:43:49.575Z,15.57
2022-12-14T00:46:18.079Z,16.43
2022-12-14T00:48:46.232Z,14.60
2022-12-14T00:51:14.854Z,14.10
2022-12-14T00:53:44.184Z,16.60
2022-12-14T00:56:12.195Z,13.40
2022-12-14T00:58:39.752Z,15.30
2022-12-14T01:01:08.616Z,16.43
2022-12-14T01:03:36.419Z,14.07
2022-12-14T01:06:04.444Z,15.20
2022-12-14T01:08:35.456Z,13.63
2022-12-14T01:11:05.830Z,16.10
2022-12-14T01:13:33.784Z,13.87
2022-12-14T01:16:09.678Z,14.63
2022-12-14T01:18:38.736Z,13.43
2022-12-14T01:21:10.125Z,13.80
2022-12-14T01:23:37.736Z,14.43
2022-12-14T01:26:05.588Z,14.23
2022-12-14T01:28:34.969Z,12.43
2022-12-14T01:31:10.163Z,14.60
2022-12-14T01:33:37.946Z,13.03
2022-12-14T01:36:10.985Z,14.47
2022-12-14T01:38:38.620Z,13.80
2022-12-14T01:41:06.513Z,14.00
2022-12-14T01:43:48.882Z,14.50
2022-12-14T01:46:18.934Z,14.43
2022-12-14T01:48:46.852Z,13.77
2022-12-14T01:51:14.546Z,14.60
2022-12-14T01:53:42.435Z,13.20
2022-12-14T01:56:10.420Z,13.50
2022-12-14T01:58:38.128Z,13.73
2022-12-14T02:01:05.756Z,13.90
2022-12-14T02:03:42.794Z,13.63
2022-12-14T02:06:13.213Z,12.53
2022-12-14T02:08:42.076Z,12.87
2022-12-14T02:11:09.846Z,13.90
2022-12-14T02:13:41.565Z,14.60
2022-12-14T02:16:09.345Z,14.17
2022-12-14T02:18:37.893Z,13.10
2022-12-14T02:21:05.414Z,12.10
2022-12-14T02:23:51.854Z,13.77
2022-12-14T02:26:31.310Z,14.03
2022-12-14T02:29:06.913Z,12.90
2022-12-14T02:31:41.007Z,14.13
2022-12-14T02:34:14.215Z,13.90
2022-12-14T02:36:58.498Z,13.17
2022-12-14T02:39:44.173Z,12.83
2022-12-14T02:42:14.819Z,9.90
2022-12-14T02:44:52.149Z,12.47
2022-12-14T02:47:23.456Z,12.90
2022-12-14T02:50:03.129Z,12.67
2022-12-14T02:52:52.167Z,11.43
2022-12-14T02:55:20.782Z,12.37
2022-12-14T02:57:48.788Z,11.20
2022-12-14T03:00:16.742Z,12.10
2022-12-14T03:02:45.194Z,12.57
2022-12-14T03:05:13.451Z,12.50
2022-12-14T03:07:44.914Z,12.80
2022-12-14T03:10:20.045Z,11.40
2022-12-14T03:12:51.812Z,11.50
2022-12-14T03:15:20.872Z,12.73
2022-12-14T03:17:52.236Z,11.90
2022-12-14T03:20:22.451Z,11.50
2022-12-14T03:22:53.945Z,12.80
2022-12-14T03:25:24.343Z,11.47
2022-12-14T03:27:54.173Z,11.23
2022-12-14T03:30:44.296Z,9.40
2022-12-14T03:33:12.993Z,12.50
2022-12-14T03:35:44.240Z,10.63
2022-12-14T03:38:17.495Z,10.03
2022-12-14T03:40:55.601Z,10.17
2022-12-14T03:43:28.208Z,12.17
2022-12-14T03:46:16.476Z,11.53
2022-12-14T03:48:56.722Z,9.57
2022-12-14T03:51:31.664Z,12.37
2022-12-14T03:53:59.942Z,11.90
2022-12-14T03:56:31.056Z,12.83
2022-12-14T03:59:06.151Z,10.73
2022-12-14T04:01:42.629Z,13.37
2022-12-14T04:04:23.120Z,10.20
2022-12-14T04:07:02.871Z,9.70
2022-12-14T04:09:35.623Z,11.03
2022-12-14T04:12:31.852Z,10.13
2022-12-14T04:15:21.231Z,10.90
2022-12-14T04:18:09.427Z,10.10
2022-12-14T04:20:41.324Z,11.97
2022-12-14T04:23:40.503Z,10.13
2022-12-14T04:26:09.316Z,9.90
2022-12-14T04:28:59.978Z,10.93
2022-12-14T04:31:29.696Z,9.80
2022-12-14T04:33:59.457Z,10.47
2022-12-14T04:36:26.999Z,10.97
2022-12-14T04:38:57.301Z,10.10
2022-12-14T04:41:27.165Z,8.70
2022-12-14T04:43:57.152Z,9.80
2022-12-14T04:46:27.463Z,9.23
2022-12-14T04:48:57.780Z,9.97
2022-12-14T04:51:25.292Z,9.90
2022-12-14T04:53:55.800Z,9.77
2022-12-14T04:56:27.019Z,9.67
2022-12-14T04:58:55.584Z,9.80
2022-12-14T05:01:29.257Z,10.37
2022-12-14T05:04:16.267Z,11.30
2022-12-14T05:06:49.861Z,10.50
2022-12-14T05:09:19.933Z,9.90
2022-12-14T05:11:54.670Z,10.20
2022-12-14T05:14:42.778Z,11.23
2022-12-14T05:17:10.872Z,9.90
2022-12-14T05:19:38.758Z,9.97
2022-12-14T05:22:07.373Z,7.53
2022-12-14T05:24:35.012Z,11.10
2022-12-14T05:27:02.620Z,9.60
2022-12-14T05:29:30.248Z,11.03
2022-12-14T05:31:58.400Z,10.37
2022-12-14T05:34:26.011Z,9.43
2022-12-14T05:36:53.565Z,11.30
2022-12-14T05:39:21.150Z,7.97
2022-12-14T05:41:48.781Z,9.67
2022-12-14T05:44:16.356Z,10.57
2022-12-14T05:46:43.902Z,9.33
2022-12-14T05:49:11.644Z,9.67
2022-12-14T05:51:39.201Z,10.70
2022-12-14T05:54:07.284Z,9.63
2022-12-14T05:56:34.922Z,9.60
2022-12-14T05:59:02.618Z,8.80
2022-12-14T06:01:30.316Z,9.57
2022-12-14T06:03:58.057Z,10.27
2022-12-14T06:06:25.815Z,9.00
2022-12-14T06:08:53.511Z,8.93
2022-12-14T06:11:22.712Z,10.20
2022-12-14T06:13:50.298Z,9.23
2022-12-14T06:16:24.976Z,9.33
2022-12-14T06:18:53.879Z,9.30
2022-12-14T06:21:23.796Z,9.97
2022-12-14T06:23:51.571Z,8.13
2022-12-14T06:26:19.275Z,9.37
2022-12-14T06:28:46.893Z,9.90
2022-12-14T06:31:16.360Z,9.90
2022-12-14T06:33:44.411Z,10.40
2022-12-14T06:36:23.800Z,9.77
2022-12-14T06:38:52.175Z,8.37
2022-12-14T06:41:20.801Z,9.33
2022-12-14T06:43:49.269Z,10.73
2022-12-14T06:46:18.726Z,9.57
2022-12-14T06:48:53.658Z,10.47
2022-12-14T06:51:21.848Z,8.40
2022-12-14T06:53:52.990Z,8.50
2022-12-14T06:56:21.319Z,9.77
2022-12-14T06:58:48.992Z,8.57
2022-12-14T07:01:17.801Z,9.40
2022-12-14T07:03:49.521Z,9.20
2022-12-14T07:06:17.472Z,9.13
2022-12-14T07:08:45.138Z,7.60
2022-12-14T07:11:13.747Z,8.77
2022-12-14T07:13:41.443Z,9.03
2022-12-14T07:16:11.429Z,10.07
2022-12-14T07:18:39.010Z,9.33
2022-12-14T07:21:06.901Z,9.70
2022-12-14T07:23:37.290Z,9.80
2022-12-14T07:26:06.028Z,9.00
2022-12-14T07:28:34.088Z,9.70
2022-12-14T07:31:01.740Z,9.17
2022-12-14T07:33:29.986Z,9.60
2022-12-14T07:36:05.153Z,10.57
2022-12-14T07:38:33.533Z,9.40
2022-12-14T07:41:05.238Z,9.80
2022-12-14T07:43:33.767Z,8.57
2022-12-14T07:46:03.904Z,9.47
2022-12-14T07:48:32.045Z,9.50
2022-12-14T07:51:03.840Z,8.57
2022-12-14T07:53:31.601Z,10.20
2022-12-14T07:56:06.909Z,8.60
2022-12-14T07:58:36.916Z,9.50
2022-12-14T08:01:12.480Z,9.70
2022-12-14T08:03:41.781Z,9.23
2022-12-14T08:06:10.708Z,9.00
2022-12-14T08:08:38.541Z,10.73
2022-12-14T08:11:06.271Z,9.17
2022-12-14T08:13:35.749Z,10.33
2022-12-14T08:16:07.997Z,8.47
2022-12-14T08:18:35.904Z,8.40
2022-12-14T08:21:07.638Z,9.20
2022-12-14T08:23:36.238Z,12.60
2022-12-14T08:26:04.873Z,10.00
2022-12-14T08:28:35.293Z,9.77
2022-12-14T08:31:10.733Z,8.33
2022-12-14T08:33:39.017Z,9.80
2022-12-14T08:36:08.102Z,8.53
2022-12-14T08:38:36.078Z,9.00
2022-12-14T08:41:08.180Z,9.30
2022-12-14T08:43:36.421Z,8.27
2022-12-14T08:46:04.645Z,9.17
2022-12-14T08:48:32.251Z,8.67
2022-12-14T08:51:04.211Z,8.57
2022-12-14T08:53:32.859Z,9.07
2022-12-14T08:56:04.975Z,9.13
2022-12-14T08:58:32.590Z,8.70
2022-12-14T09:01:01.628Z,7.77
2022-12-14T09:03:29.562Z,8.13
2022-12-14T09:05:57.398Z,7.50
2022-12-14T09:08:25.050Z,7.50
2022-12-14T09:10:52.989Z,7.77
2022-12-14T09:13:20.793Z,8.27
2022-12-14T09:15:56.179Z,8.27
2022-12-14T09:18:25.052Z,8.60
2022-12-14T09:20:55.985Z,9.90
2022-12-14T09:23:24.307Z,8.93
2022-12-14T09:26:08.104Z,9.77
2022-12-14T09:28:36.775Z,10.63
2022-12-14T09:31:06.038Z,9.30
2022-12-14T09:33:34.012Z,8.83
2022-12-14T09:36:02.967Z,9.83
2022-12-14T09:38:32.255Z,10.70
2022-12-14T09:41:04.824Z,10.93
2022-12-14T09:43:46.795Z,10.10
2022-12-14T09:46:33.733Z,10.70
2022-12-14T09:49:02.417Z,10.83
2022-12-14T09:51:35.293Z,11.00
2022-12-14T09:54:06.189Z,11.70
2022-12-14T09:56:34.570Z,11.37
2022-12-14T09:59:04.178Z,13.20
2022-12-14T10:01:38.142Z,13.63
2022-12-14T10:04:16.053Z,14.50
2022-12-14T10:07:02.174Z,13.53
2022-12-14T10:09:32.912Z,16.70
2022-12-14T10:12:06.209Z,16.30
2022-12-14T10:14:44.315Z,14.30
2022-12-14T10:17:24.964Z,15.13
2022-12-14T10:19:54.630Z,16.13
2022-12-14T10:22:43.621Z,15.57
2022-12-14T10:25:11.596Z,15.70
2022-12-14T10:28:09.327Z,15.80
2022-12-14T10:30:29.961Z,17.03
2022-12-14T10:33:03.339Z,16.07
2022-12-14T10:35:36.664Z,15.67
2022-12-14T10:38:06.547Z,15.50
2022-12-14T10:40:35.545Z,16.43
2022-12-14T10:43:22.069Z,16.93
2022-12-14T10:45:50.120Z,16.00
2022-12-14T10:48:40.118Z,14.87
2022-12-14T10:51:14.056Z,14.77
2022-12-14T10:53:44.359Z,16.30
2022-12-14T10:56:15.367Z,14.83
2022-12-14T10:58:42.992Z,15.30
2022-12-14T11:01:14.443Z,15.27
2022-12-14T11:03:43.628Z,15.10
2022-12-14T11:06:17.612Z,14.70
2022-12-14T11:08:48.357Z,12.60
2022-12-14T11:11:19.235Z,12.70
2022-12-14T11:13:54.829Z,12.10
2022-12-14T11:16:36.543Z,14.27
2022-12-14T11:19:06.221Z,13.00
2022-12-14T11:21:35.519Z,11.40
2022-12-14T11:24:03.208Z,14.77
2022-12-14T11:26:36.032Z,14.20
2022-12-14T11:29:05.922Z,13.20
2022-12-14T11:31:38.545Z,13.90
2022-12-14T11:34:07.424Z,14.50
2022-12-14T11:36:38.089Z,14.43
2022-12-14T11:39:15.482Z,14.87
2022-12-14T11:41:50.768Z,14.83
2022-12-14T11:44:29.211Z,14.23
2022-12-14T11:47:00.280Z,12.07
2022-12-14T11:49:34.187Z,12.30
2022-12-14T11:52:07.108Z,12.40
2022-12-14T11:54:35.551Z,12.13
2022-12-14T11:57:18.013Z,13.23
2022-12-14T11:59:47.666Z,11.20
2022-12-14T12:02:26.993Z,12.30
2022-12-14T12:04:57.668Z,11.50
2022-12-14T12:07:27.186Z,13.60
2022-12-14T12:09:55.268Z,12.30
2022-12-14T12:12:23.925Z,12.33
2022-12-14T12:14:55.453Z,12.80
2022-12-14T12:17:39.957Z,13.23
2022-12-14T12:20:26.647Z,13.03
2022-12-14T12:22:57.998Z,12.37
2022-12-14T12:25:33.511Z,12.00
2022-12-14T12:28:10.865Z,13.03
2022-12-14T12:30:41.695Z,11.70
2022-12-14T12:33:23.580Z,13.60
2022-12-14T12:35:53.229Z,12.70
2022-12-14T12:38:24.663Z,12.87
2022-12-14T12:40:56.727Z,14.60
2022-12-14T12:43:46.082Z,14.67
2022-12-14T12:46:25.129Z,14.90
2022-12-14T12:48:58.236Z,13.47
2022-12-14T12:51:27.451Z,14.50
2022-12-14T12:53:57.499Z,14.63
2022-12-14T12:56:49.271Z,13.23
2022-12-14T12:59:22.616Z,14.70
2022-12-14T13:01:53.797Z,14.47
2022-12-14T13:04:31.054Z,14.90
2022-12-14T13:07:03.629Z,13.00
2022-12-14T13:09:40.769Z,13.47
2022-12-14T13:12:12.912Z,14.20
2022-12-14T13:14:49.696Z,13.87
2022-12-14T13:17:31.303Z,14.40
2022-12-14T13:20:00.591Z,16.42
2022-12-14T13:22:33.203Z,14.20
2022-12-14T13:25:05.890Z,13.40
2022-12-14T13:27:42.383Z,14.97
2022-12-14T13:30:10.818Z,15.47
2022-12-14T13:32:43.441Z,16.20
2022-12-14T13:35:37.872Z,14.97
2022-12-14T13:38:21.458Z,17.27
2022-12-14T13:40:57.466Z,14.57
2022-12-14T13:43:32.577Z,15.00
2022-12-14T13:46:06.823Z,18.73
2022-12-14T13:48:37.260Z,18.00
2022-12-14T13:51:05.957Z,17.67
2022-12-14T13:53:50.228Z,15.63
2022-12-14T13:56:27.847Z,15.73
2022-12-14T13:59:01.042Z,14.07
2022-12-14T14:01:31.633Z,14.87
2022-12-14T14:04:13.260Z,15.43
2022-12-14T14:06:51.756Z,13.87
2022-12-14T14:09:32.687Z,15.57
2022-12-14T14:12:09.387Z,14.63
2022-12-14T14:14:43.220Z,14.53
2022-12-14T14:17:20.664Z,15.00
2022-12-14T14:19:49.979Z,16.60
2022-12-14T14:22:25.993Z,15.90
2022-12-14T14:25:12.571Z,19.40
2022-12-14T14:27:42.192Z,17.50
2022-12-14T14:30:30.207Z,16.83
2022-12-14T14:33:19.909Z,16.67
2022-12-14T14:35:49.582Z,15.53
2022-12-14T14:38:29.700Z,15.53
2022-12-14T14:41:16.077Z,16.13
2022-12-14T14:43:49.937Z,16.40
2022-12-14T14:46:22.485Z,15.90
2022-12-14T14:48:53.447Z,15.83
2022-12-14T14:51:33.577Z,16.53
2022-12-14T14:57:28.231Z,16.13
2022-12-14T15:00:01.367Z,16.00
2022-12-14T15:02:33.694Z,16.70
2022-12-14T15:05:24.712Z,15.10
2022-12-14T15:07:49.823Z,14.77
2022-12-14T15:10:29.887Z,15.97
2022-12-14T15:13:02.061Z,17.83
2022-12-14T15:15:37.203Z,16.10
2022-12-14T15:18:22.841Z,15.70
2022-12-14T15:20:54.659Z,16.30
2022-12-14T15:23:22.553Z,15.93
2022-12-14T15:26:00.983Z,15.77
2022-12-14T15:28:29.770Z,16.30
2022-12-14T15:30:58.308Z,16.00
2022-12-14T15:33:28.044Z,16.93
2022-12-14T15:36:02.533Z,17.00
2022-12-14T15:38:35.177Z,16.60
2022-12-14T15:41:07.471Z,16.00
2022-12-14T15:43:35.270Z,16.87
2022-12-14T15:46:03.412Z,15.93
2022-12-14T15:48:35.291Z,16.10
2022-12-14T15:51:06.976Z,17.20
2022-12-14T15:53:40.444Z,15.20
2022-12-14T15:56:23.015Z,17.20
2022-12-14T15:58:51.573Z,19.23
2022-12-14T16:01:22.701Z,18.03
2022-12-14T16:03:52.255Z,16.67
2022-12-14T16:06:20.450Z,16.13
2022-12-14T16:08:53.597Z,15.80
2022-12-14T16:11:32.188Z,16.30
2022-12-14T16:14:01.839Z,18.33
2022-12-14T16:16:29.649Z,16.60
2022-12-14T16:19:13.946Z,22.20
2022-12-14T16:21:47.488Z,18.03
2022-12-14T16:24:24.588Z,18.43
2022-12-14T16:27:00.587Z,22.67
2022-12-14T16:29:29.512Z,18.80
2022-12-14T16:32:01.334Z,20.63
2022-12-14T16:34:29.173Z,23.80
2022-12-14T16:37:31.041Z,22.70
2022-12-14T16:39:50.560Z,20.33
2022-12-14T16:42:25.112Z,20.90
2022-12-14T16:44:54.006Z,21.70
2022-12-14T16:47:21.592Z,22.23
2022-12-14T16:49:52.244Z,21.43
2022-12-14T16:52:23.840Z,21.17
2022-12-14T16:55:06.930Z,20.10
2022-12-14T16:57:35.555Z,22.43
2022-12-14T17:00:05.597Z,21.10
2022-12-14T17:02:38.713Z,21.03
2022-12-14T17:05:12.727Z,20.40
2022-12-14T17:07:40.497Z,20.90
2022-12-14T17:10:14.746Z,21.30
2022-12-14T17:12:43.902Z,22.20
2022-12-14T17:15:16.039Z,21.27
2022-12-14T17:17:43.898Z,21.27
2022-12-14T17:20:18.756Z,21.10
2022-12-14T17:22:49.777Z,22.60
2022-12-14T17:25:17.883Z,21.43
2022-12-14T17:27:46.132Z,22.17
2022-12-14T17:30:15.431Z,26.10
2022-12-14T17:32:43.832Z,26.00
2022-12-14T17:35:16.395Z,24.47
2022-12-14T17:37:45.017Z,23.43
2022-12-14T17:40:12.706Z,22.50
2022-12-14T17:42:40.955Z,24.50
2022-12-14T17:45:21.725Z,22.67
2022-12-14T17:47:49.549Z,23.83
2022-12-14T17:50:18.235Z,21.90
2022-12-14T17:52:46.878Z,21.97
2022-12-14T17:55:19.597Z,20.80
2022-12-14T17:57:47.604Z,21.27
2022-12-14T18:00:42.468Z,22.40
2022-12-14T18:03:10.967Z,21.80
2022-12-14T18:05:44.955Z,19.27
2022-12-14T18:08:16.972Z,22.20
2022-12-14T18:10:44.626Z,19.90
2022-12-14T18:13:13.116Z,21.30
2022-12-14T18:15:49.646Z,21.40
2022-12-14T18:18:19.358Z,16.43
2022-12-14T18:20:49.596Z,17.57
2022-12-14T18:23:38.188Z,16.23
2022-12-14T18:26:06.775Z,15.40
2022-12-14T18:28:34.903Z,15.03
2022-12-14T18:31:04.500Z,15.27
2022-12-14T18:33:34.255Z,14.50
2022-12-14T18:36:02.641Z,13.07
2022-12-14T18:38:30.362Z,13.17
2022-12-14T18:40:58.794Z,12.60
2022-12-14T18:43:28.255Z,11.90
2022-12-14T18:45:56.670Z,12.93
2022-12-14T18:48:25.071Z,11.07
2022-12-14T18:50:54.008Z,14.00
2022-12-14T18:53:22.711Z,12.10
2022-12-14T18:55:50.511Z,12.90
2022-12-14T18:58:19.849Z,13.10
2022-12-14T19:00:47.577Z,14.10
2022-12-14T19:03:16.246Z,18.00
2022-12-14T19:05:45.521Z,14.90
2022-12-14T19:08:13.344Z,16.93
2022-12-14T19:10:42.762Z,16.33
2022-12-14T19:13:25.782Z,15.90
2022-12-14T19:15:54.617Z,13.13
2022-12-14T19:18:25.397Z,15.10
2022-12-14T19:20:52.997Z,13.03
2022-12-14T19:23:21.748Z,13.53
2022-12-14T19:25:49.547Z,13.07
2022-12-14T19:28:32.020Z,11.07
2022-12-14T19:31:04.022Z,12.63
2022-12-14T19:33:33.590Z,18.40
2022-12-14T19:36:04.931Z,18.97
2022-12-14T19:38:37.667Z,16.70
2022-12-14T19:41:06.767Z,10.20
2022-12-14T19:43:37.706Z,15.00
2022-12-14T19:46:09.106Z,14.27
2022-12-14T19:48:37.926Z,13.40
2022-12-14T19:51:13.055Z,12.90
2022-12-14T19:53:42.762Z,14.07
2022-12-14T19:56:10.864Z,11.90
2022-12-14T19:58:38.541Z,12.30
2022-12-14T20:01:12.986Z,13.03
2022-12-14T20:03:41.059Z,11.37
2022-12-14T20:06:09.275Z,10.87
2022-12-14T20:08:37.662Z,10.80
2022-12-14T20:11:06.997Z,9.60
2022-12-14T20:13:35.107Z,7.33
2022-12-14T20:16:02.989Z,9.43
2022-12-14T20:18:31.119Z,9.40
2022-12-14T20:21:02.819Z,8.10
2022-12-14T20:23:32.153Z,9.77
2022-12-14T20:26:01.657Z,9.13
2022-12-14T20:28:30.011Z,8.40
2022-12-14T20:30:57.776Z,8.67
2022-12-14T20:33:30.135Z,8.20
2022-12-14T20:35:58.588Z,8.93
2022-12-14T20:38:26.715Z,9.00
2022-12-14T20:40:54.426Z,9.47
2022-12-14T20:43:22.224Z,9.70
2022-12-14T20:45:50.169Z,9.03
2022-12-14T20:48:17.721Z,7.83
2022-12-14T20:50:49.297Z,9.87
2022-12-14T20:53:23.300Z,9.63
2022-12-14T20:55:51.008Z,9.10
2022-12-14T20:58:18.622Z,9.87
2022-12-14T21:00:46.393Z,9.37
2022-12-14T21:03:15.207Z,9.80
2022-12-14T21:05:43.195Z,10.27
2022-12-14T21:08:11.022Z,9.07
2022-12-14T21:10:38.640Z,9.50
2022-12-14T21:13:07.966Z,9.30
2022-12-14T21:15:36.246Z,9.43
2022-12-14T21:18:03.936Z,9.67
2022-12-14T21:20:31.503Z,10.47
2022-12-14T21:22:59.157Z,10.33
2022-12-14T21:25:27.130Z,10.90
2022-12-14T21:27:54.731Z,10.03
2022-12-14T21:30:24.404Z,10.10
2022-12-14T21:32:52.198Z,10.80
2022-12-14T21:35:19.801Z,11.23
2022-12-14T21:37:47.977Z,10.90
2022-12-14T21:40:36.250Z,10.27
2022-12-14T21:43:05.085Z,10.23
2022-12-14T21:45:32.699Z,10.43
2022-12-14T21:48:00.372Z,10.23
2022-12-14T21:50:28.536Z,9.93
2022-12-14T21:52:56.201Z,17.53
2022-12-14T21:55:23.814Z,11.63
2022-12-14T21:58:10.093Z,11.17
2022-12-14T22:00:38.467Z,10.50
2022-12-14T22:03:06.155Z,7.40
2022-12-14T22:05:33.778Z,8.10
2022-12-14T22:08:01.370Z,9.27
2022-12-14T22:10:30.037Z,10.90
2022-12-14T22:12:57.616Z,10.87
2022-12-14T22:15:25.214Z,10.60
2022-12-14T22:17:52.782Z,11.20
2022-12-14T22:20:20.501Z,8.10
2022-12-14T22:22:48.032Z,9.53
2022-12-14T22:25:15.665Z,10.30
2022-12-14T22:27:43.208Z,10.00
2022-12-14T22:30:18.014Z,9.40
2022-12-14T22:32:45.815Z,10.10
2022-12-14T22:35:13.524Z,11.00
2022-12-14T22:37:41.144Z,10.43
2022-12-14T22:40:09.425Z,10.97
2022-12-14T22:42:36.967Z,10.93
2022-12-14T22:45:04.806Z,9.27
2022-12-14T22:47:32.373Z,6.50
2022-12-14T22:50:00.335Z,7.20
2022-12-14T22:52:27.872Z,8.17
2022-12-14T22:54:55.426Z,10.40
2022-12-14T22:57:23.658Z,11.87
2022-12-14T22:59:59.352Z,10.73
2022-12-14T23:02:27.180Z,10.00
2022-12-14T23:04:55.081Z,11.33
2022-12-14T23:07:22.747Z,7.60
2022-12-14T23:10:09.044Z,8.07
2022-12-14T23:12:55.442Z,9.53
2022-12-14T23:15:42.044Z,9.37
2022-12-14T23:18:28.333Z,10.20
2022-12-14T23:21:15.436Z,10.30
2022-12-14T23:24:03.307Z,9.70
2022-12-14T23:26:50.308Z,10.70
2022-12-14T23:29:36.463Z,10.10
2022-12-14T23:32:22.715Z,10.07
2022-12-14T23:35:09.468Z,6.50
2022-12-14T23:37:56.282Z,9.10
2022-12-14T23:40:42.536Z,9.90
2022-12-14T23:43:29.833Z,9.83
2022-12-14T23:46:16.945Z,10.17
2022-12-14T23:49:03.497Z,10.53
2022-12-14T23:51:50.822Z,10.37
2022-12-14T23:54:37.151Z,8.63
2022-12-14T23:57:26.064Z,11.30
